createdAt,value
2017-03-23T00:00:51.035Z,96.60
2017-03-23T00:01:51.775Z,96.70
2017-03-23T00:02:50.447Z,96.70
2017-03-23T00:03:49.695Z,96.70
2017-03-23T00:04:48.747Z,96.70
2017-03-23T00:05:47.735Z,96.50
2017-03-23T00:06:46.339Z,96.50
2017-03-23T00:07:46.456Z,96.40
2017-03-23T00:08:45.458Z,96.60
2017-03-23T00:09:44.044Z,96.60
2017-03-23T00:10:43.063Z,96.80
2017-03-23T00:11:42.091Z,97.00
2017-03-23T00:12:41.156Z,97.30
2017-03-23T00:13:40.173Z,97.20
2017-03-23T00:14:39.175Z,97.30
2017-03-23T00:15:38.495Z,97.00
2017-03-23T00:16:37.503Z,97.10
2017-03-23T00:17:36.454Z,96.40
2017-03-23T00:18:35.465Z,96.40
2017-03-23T00:19:34.634Z,96.40
2017-03-23T00:20:33.756Z,96.70
2017-03-23T00:21:32.752Z,96.90
2017-03-23T00:22:31.323Z,96.90
2017-03-23T00:23:30.279Z,96.10
2017-03-23T00:24:29.307Z,96.50
2017-03-23T00:25:28.275Z,97.40
2017-03-23T00:26:27.268Z,97.40
2017-03-23T00:27:25.868Z,97.30
2017-03-23T00:28:24.838Z,98.10
2017-03-23T00:29:23.445Z,98.10
2017-03-23T00:30:22.499Z,97.50
2017-03-23T00:31:21.468Z,97.10
2017-03-23T00:32:20.043Z,97.10
2017-03-23T00:33:18.957Z,96.50
2017-03-23T00:34:17.631Z,96.50
2017-03-23T00:35:16.595Z,95.90
2017-03-23T00:36:15.931Z,95.60
2017-03-23T00:37:14.454Z,95.60
2017-03-23T00:38:13.430Z,96.40
2017-03-23T00:39:12.555Z,96.60
2017-03-23T00:40:11.580Z,96.90
2017-03-23T00:41:10.559Z,97.60
2017-03-23T00:42:09.574Z,98.30
2017-03-23T00:43:08.599Z,98.80
2017-03-23T00:44:07.628Z,99.50
2017-03-23T00:45:06.664Z,99.80
2017-03-23T00:46:05.671Z,99.20
2017-03-23T00:47:04.736Z,98.90
2017-03-23T00:48:04.114Z,99.10
2017-03-23T00:49:02.707Z,99.10
2017-03-23T00:50:02.472Z,99.90
2017-03-23T00:51:01.406Z,99.80
2017-03-23T00:52:00.019Z,99.80
2017-03-23T00:52:58.983Z,98.40
2017-03-23T00:53:57.966Z,98.20
2017-03-23T00:54:57.715Z,98.50
2017-03-23T00:55:57.140Z,99.40
2017-03-23T00:56:56.131Z,99.80
2017-03-23T00:57:54.720Z,99.80
2017-03-23T00:58:53.771Z,99.90
2017-03-23T00:59:52.819Z,99.90
2017-03-23T01:00:51.851Z,99.90
2017-03-23T01:01:50.867Z,99.90
2017-03-23T01:02:49.463Z,99.90
2017-03-23T01:03:48.448Z,99.90
2017-03-23T01:04:47.900Z,99.90
2017-03-23T01:05:52.229Z,99.90
2017-03-23T01:06:56.607Z,99.90
2017-03-23T01:08:00.584Z,99.90
2017-03-23T01:09:04.800Z,99.90
2017-03-23T01:10:09.164Z,99.90
2017-03-23T01:11:13.516Z,99.90
2017-03-23T01:12:17.940Z,99.90
2017-03-23T01:13:22.284Z,99.90
2017-03-23T01:14:26.646Z,99.90
2017-03-23T01:15:31.045Z,99.90
2017-03-23T01:16:35.287Z,99.90
2017-03-23T01:17:39.967Z,99.90
2017-03-23T01:18:38.978Z,99.90
2017-03-23T01:19:37.873Z,99.90
2017-03-23T01:20:37.327Z,99.90
2017-03-23T01:21:36.282Z,99.90
2017-03-23T01:22:35.555Z,99.90
2017-03-23T01:23:34.207Z,99.90
2017-03-23T01:24:33.215Z,99.90
2017-03-23T01:25:32.190Z,99.90
2017-03-23T01:26:31.143Z,99.90
2017-03-23T01:27:29.766Z,99.90
2017-03-23T01:28:28.739Z,99.90
2017-03-23T01:29:27.715Z,99.90
2017-03-23T01:30:26.758Z,99.90
2017-03-23T01:31:25.742Z,99.90
2017-03-23T01:32:24.727Z,99.90
2017-03-23T01:33:23.760Z,99.90
2017-03-23T01:34:22.719Z,99.90
2017-03-23T01:35:21.692Z,99.90
2017-03-23T01:36:20.607Z,99.90
2017-03-23T01:37:19.616Z,99.90
2017-03-23T01:38:18.954Z,99.90
2017-03-23T01:39:18.047Z,99.90
2017-03-23T01:40:17.008Z,99.90
2017-03-23T01:41:15.997Z,99.90
2017-03-23T01:42:14.610Z,99.90
2017-03-23T01:43:13.584Z,99.90
2017-03-23T01:44:12.551Z,99.90
2017-03-23T01:45:11.531Z,99.90
2017-03-23T01:46:10.502Z,99.90
2017-03-23T01:47:09.885Z,99.90
2017-03-23T01:48:08.801Z,99.90
2017-03-23T01:49:07.776Z,99.90
2017-03-23T01:50:06.855Z,99.90
2017-03-23T01:51:05.839Z,99.90
2017-03-23T01:52:05.559Z,99.90
2017-03-23T01:53:04.548Z,99.90
2017-03-23T01:54:03.510Z,99.90
2017-03-23T01:55:02.459Z,99.90
2017-03-23T01:56:01.439Z,99.90
2017-03-23T01:57:00.451Z,99.90
2017-03-23T01:57:59.425Z,99.90
2017-03-23T01:58:58.448Z,99.90
2017-03-23T01:59:57.448Z,99.90
2017-03-23T02:00:56.103Z,99.90
2017-03-23T02:01:55.148Z,99.90
2017-03-23T02:02:54.228Z,99.90
2017-03-23T02:03:53.275Z,99.90
2017-03-23T02:04:52.325Z,99.90
2017-03-23T02:05:51.272Z,99.90
2017-03-23T02:06:50.303Z,99.90
2017-03-23T02:07:49.267Z,99.90
2017-03-23T02:08:48.238Z,99.90
2017-03-23T02:09:46.831Z,99.90
2017-03-23T02:10:45.469Z,99.90
2017-03-23T02:11:44.468Z,99.90
2017-03-23T02:12:43.459Z,99.90
2017-03-23T02:13:42.407Z,99.90
2017-03-23T02:14:41.391Z,99.90
2017-03-23T02:15:40.058Z,99.90
2017-03-23T02:16:38.652Z,99.90
2017-03-23T02:17:37.586Z,99.90
2017-03-23T02:18:36.667Z,99.90
2017-03-23T02:19:35.691Z,99.90
2017-03-23T02:20:34.739Z,99.90
2017-03-23T02:21:33.700Z,99.90
2017-03-23T02:22:32.340Z,99.90
2017-03-23T02:23:30.932Z,99.90
2017-03-23T02:24:29.516Z,99.90
2017-03-23T02:25:28.524Z,99.90
2017-03-23T02:26:27.555Z,99.90
2017-03-23T02:27:26.115Z,99.90
2017-03-23T02:28:25.199Z,99.90
2017-03-23T02:29:24.223Z,99.90
2017-03-23T02:30:23.251Z,99.90
2017-03-23T02:31:22.276Z,99.90
2017-03-23T02:32:21.667Z,99.90
2017-03-23T02:33:20.235Z,99.90
2017-03-23T02:34:19.220Z,99.90
2017-03-23T02:35:18.213Z,99.90
2017-03-23T02:36:16.787Z,99.90
2017-03-23T02:37:15.380Z,99.90
2017-03-23T02:38:14.465Z,99.90
2017-03-23T02:39:13.462Z,99.90
2017-03-23T02:40:12.464Z,99.90
2017-03-23T02:41:11.432Z,99.90
2017-03-23T02:42:10.115Z,99.90
2017-03-23T02:43:09.083Z,99.90
2017-03-23T02:44:08.119Z,99.90
2017-03-23T02:45:07.137Z,99.90
2017-03-23T02:46:06.131Z,99.90
2017-03-23T02:47:05.179Z,99.90
2017-03-23T02:48:04.185Z,99.90
2017-03-23T02:49:03.195Z,99.90
2017-03-23T02:50:02.268Z,99.90
2017-03-23T02:51:01.327Z,99.90
2017-03-23T02:52:00.728Z,99.90
2017-03-23T02:52:59.274Z,99.90
2017-03-23T02:53:58.299Z,99.90
2017-03-23T02:54:57.311Z,99.90
2017-03-23T02:55:56.364Z,99.90
2017-03-23T02:56:55.318Z,99.90
2017-03-23T02:57:53.995Z,99.90
2017-03-23T02:58:53.043Z,99.90
2017-03-23T02:59:52.039Z,99.90
2017-03-23T03:00:50.970Z,99.90
2017-03-23T03:01:50.063Z,99.90
2017-03-23T03:02:49.010Z,99.90
2017-03-23T03:03:48.051Z,99.90
2017-03-23T03:04:47.088Z,99.90
2017-03-23T03:05:46.122Z,99.90
2017-03-23T03:06:45.162Z,99.90
2017-03-23T03:07:44.247Z,99.90
2017-03-23T03:08:43.582Z,99.90
2017-03-23T03:09:42.578Z,99.90
2017-03-23T03:10:41.626Z,99.90
2017-03-23T03:11:40.655Z,99.90
2017-03-23T03:12:39.596Z,99.90
2017-03-23T03:13:38.642Z,99.90
2017-03-23T03:14:37.657Z,99.90
2017-03-23T03:15:36.707Z,99.90
2017-03-23T03:16:35.691Z,99.90
2017-03-23T03:17:34.732Z,99.90
2017-03-23T03:18:33.707Z,99.90
2017-03-23T03:19:32.704Z,99.90
2017-03-23T03:20:31.675Z,99.90
2017-03-23T03:21:30.259Z,99.90
2017-03-23T03:22:29.234Z,99.90
2017-03-23T03:23:28.211Z,99.90
2017-03-23T03:24:27.165Z,99.90
2017-03-23T03:25:26.103Z,99.90
2017-03-23T03:26:25.131Z,99.90
2017-03-23T03:27:23.724Z,99.90
2017-03-23T03:28:22.303Z,99.90
2017-03-23T03:29:21.303Z,99.90
2017-03-23T03:30:20.288Z,99.90
2017-03-23T03:31:19.307Z,99.90
2017-03-23T03:32:18.311Z,99.90
2017-03-23T03:33:17.303Z,99.90
2017-03-23T03:34:15.863Z,99.90
2017-03-23T03:35:14.956Z,99.90
2017-03-23T03:36:14.427Z,99.90
2017-03-23T03:37:13.656Z,99.90
2017-03-23T03:38:12.272Z,99.90
2017-03-23T03:39:11.303Z,99.90
2017-03-23T03:40:10.640Z,99.90
2017-03-23T03:41:09.676Z,99.90
2017-03-23T03:42:08.756Z,99.90
2017-03-23T03:43:07.747Z,99.90
2017-03-23T03:44:06.787Z,99.90
2017-03-23T03:45:05.759Z,99.90
2017-03-23T03:46:04.707Z,99.90
2017-03-23T03:47:03.669Z,99.90
2017-03-23T03:48:02.712Z,99.90
2017-03-23T03:49:01.699Z,99.90
2017-03-23T03:50:00.319Z,99.90
2017-03-23T03:50:58.900Z,99.90
2017-03-23T03:51:57.956Z,99.90
2017-03-23T03:52:56.964Z,99.90
2017-03-23T03:53:55.970Z,99.90
2017-03-23T03:54:54.979Z,99.90
2017-03-23T03:55:53.984Z,99.90
2017-03-23T03:56:52.961Z,99.90
2017-03-23T03:57:51.976Z,99.90
2017-03-23T03:58:50.947Z,99.90
2017-03-23T03:59:49.960Z,99.90
2017-03-23T04:00:48.967Z,99.90
2017-03-23T04:01:47.958Z,99.90
2017-03-23T04:02:46.559Z,99.90
2017-03-23T04:03:45.575Z,99.90
2017-03-23T04:04:44.569Z,99.90
2017-03-23T04:05:43.159Z,99.90
2017-03-23T04:06:42.129Z,99.90
2017-03-23T04:07:41.139Z,99.90
2017-03-23T04:08:40.142Z,99.90
2017-03-23T04:09:39.133Z,99.90
2017-03-23T04:10:38.200Z,99.90
2017-03-23T04:11:37.215Z,99.90
2017-03-23T04:12:36.250Z,99.90
2017-03-23T04:13:35.307Z,99.90
2017-03-23T04:14:34.285Z,99.90
2017-03-23T04:15:33.378Z,99.90
2017-03-23T04:16:32.375Z,99.90
2017-03-23T04:17:31.756Z,99.90
2017-03-23T04:18:30.735Z,99.90
2017-03-23T04:19:29.711Z,99.90
2017-03-23T04:20:28.739Z,99.90
2017-03-23T04:21:27.682Z,99.90
2017-03-23T04:22:27.067Z,99.90
2017-03-23T04:23:26.031Z,99.90
2017-03-23T04:24:24.660Z,99.90
2017-03-23T04:25:23.632Z,99.90
2017-03-23T04:26:22.630Z,99.90
2017-03-23T04:27:21.615Z,99.90
2017-03-23T04:28:20.644Z,99.90
2017-03-23T04:29:19.576Z,99.90
2017-03-23T04:30:18.941Z,99.90
2017-03-23T04:31:17.928Z,99.90
2017-03-23T04:32:16.515Z,99.90
2017-03-23T04:33:15.536Z,99.90
2017-03-23T04:34:14.152Z,99.90
2017-03-23T04:35:13.103Z,99.90
2017-03-23T04:36:12.108Z,99.90
2017-03-23T04:37:11.112Z,99.90
2017-03-23T04:38:10.460Z,99.90
2017-03-23T04:39:09.493Z,99.90
2017-03-23T04:40:08.485Z,99.90
2017-03-23T04:41:07.076Z,99.90
2017-03-23T04:42:06.035Z,99.90
2017-03-23T04:43:05.117Z,99.90
2017-03-23T04:44:04.135Z,99.90
2017-03-23T04:45:03.111Z,99.90
2017-03-23T04:46:02.084Z,99.90
2017-03-23T04:47:01.052Z,99.90
2017-03-23T04:48:00.544Z,99.90
2017-03-23T04:48:59.560Z,99.90
2017-03-23T04:49:58.548Z,99.90
2017-03-23T04:50:57.572Z,99.90
2017-03-23T04:51:56.565Z,99.90
2017-03-23T04:52:55.556Z,99.90
2017-03-23T04:53:54.556Z,99.90
2017-03-23T04:54:53.612Z,99.90
2017-03-23T04:55:52.577Z,99.90
2017-03-23T04:56:51.219Z,99.90
2017-03-23T04:57:50.188Z,99.90
2017-03-23T04:58:49.177Z,99.90
2017-03-23T04:59:48.251Z,99.90
2017-03-23T05:00:47.241Z,99.90
2017-03-23T05:01:45.859Z,99.90
2017-03-23T05:02:44.861Z,99.90
2017-03-23T05:03:43.835Z,99.90
2017-03-23T05:04:43.236Z,99.90
2017-03-23T05:05:42.263Z,99.90
2017-03-23T05:06:41.327Z,99.90
2017-03-23T05:07:40.299Z,99.90
2017-03-23T05:08:39.221Z,99.90
2017-03-23T05:09:38.340Z,99.90
2017-03-23T05:10:37.335Z,99.90
2017-03-23T05:11:35.984Z,99.90
2017-03-23T05:12:34.956Z,99.90
2017-03-23T05:13:34.037Z,99.90
2017-03-23T05:14:32.979Z,99.90
2017-03-23T05:15:31.924Z,99.90
2017-03-23T05:16:30.942Z,99.90
2017-03-23T05:17:29.924Z,99.90
2017-03-23T05:18:28.955Z,99.90
2017-03-23T05:19:27.910Z,99.90
2017-03-23T05:20:26.887Z,99.90
2017-03-23T05:21:25.458Z,99.90
2017-03-23T05:22:24.423Z,99.90
2017-03-23T05:23:23.435Z,99.90
2017-03-23T05:24:22.455Z,99.90
2017-03-23T05:25:21.435Z,99.90
2017-03-23T05:26:20.351Z,99.90
2017-03-23T05:27:19.371Z,99.90
2017-03-23T05:28:18.399Z,99.90
2017-03-23T05:29:17.395Z,99.90
2017-03-23T05:30:16.324Z,99.90
2017-03-23T05:31:15.380Z,99.90
2017-03-23T05:32:14.336Z,99.90
2017-03-23T05:33:13.416Z,99.90
2017-03-23T05:34:12.460Z,99.90
2017-03-23T05:35:11.852Z,99.90
2017-03-23T05:36:10.819Z,99.90
2017-03-23T05:37:09.783Z,99.90
2017-03-23T05:38:08.404Z,99.90
2017-03-23T05:39:07.404Z,99.90
2017-03-23T05:40:06.391Z,99.90
2017-03-23T05:41:05.399Z,99.90
2017-03-23T05:42:04.007Z,99.90
2017-03-23T05:43:02.988Z,99.90
2017-03-23T05:44:01.968Z,99.90
2017-03-23T05:45:01.012Z,99.90
2017-03-23T05:45:59.990Z,99.90
2017-03-23T05:46:58.991Z,99.90
2017-03-23T05:47:57.994Z,99.90
2017-03-23T05:48:56.920Z,99.90
2017-03-23T05:49:55.980Z,99.90
2017-03-23T05:50:54.955Z,99.90
2017-03-23T05:51:53.543Z,99.90
2017-03-23T05:52:52.568Z,99.90
2017-03-23T05:53:51.136Z,99.90
2017-03-23T05:54:50.091Z,99.90
2017-03-23T05:55:49.452Z,99.90
2017-03-23T05:56:48.471Z,99.90
2017-03-23T05:57:47.078Z,99.90
2017-03-23T05:58:46.083Z,99.90
2017-03-23T05:59:45.068Z,99.90
2017-03-23T06:00:44.120Z,99.90
2017-03-23T06:01:42.695Z,99.90
2017-03-23T06:02:41.652Z,99.90
2017-03-23T06:03:40.639Z,99.90
2017-03-23T06:04:40.031Z,99.90
2017-03-23T06:05:38.651Z,99.90
2017-03-23T06:06:37.627Z,99.90
2017-03-23T06:07:36.733Z,99.90
2017-03-23T06:08:35.712Z,99.90
2017-03-23T06:09:34.683Z,99.90
2017-03-23T06:10:33.651Z,99.90
2017-03-23T06:11:32.260Z,99.90
2017-03-23T06:12:31.496Z,99.90
2017-03-23T06:13:30.495Z,99.90
2017-03-23T06:14:29.616Z,99.90
2017-03-23T06:15:28.661Z,99.90
2017-03-23T06:16:27.248Z,99.90
2017-03-23T06:17:26.252Z,99.90
2017-03-23T06:18:24.812Z,99.90
2017-03-23T06:19:23.790Z,99.90
2017-03-23T06:20:22.849Z,99.90
2017-03-23T06:21:21.903Z,99.90
2017-03-23T06:22:20.479Z,99.90
2017-03-23T06:23:19.427Z,99.90
2017-03-23T06:24:18.431Z,99.90
2017-03-23T06:25:17.432Z,99.90
2017-03-23T06:26:16.399Z,99.90
2017-03-23T06:27:15.384Z,99.90
2017-03-23T06:28:14.383Z,99.90
2017-03-23T06:29:12.972Z,99.90
2017-03-23T06:30:12.047Z,99.90
2017-03-23T06:31:11.411Z,99.90
2017-03-23T06:32:10.407Z,99.90
2017-03-23T06:33:09.519Z,99.90
2017-03-23T06:34:08.527Z,99.90
2017-03-23T06:35:07.660Z,99.90
2017-03-23T06:36:06.659Z,99.90
2017-03-23T06:37:06.681Z,99.90
2017-03-23T06:38:06.209Z,99.90
2017-03-23T06:39:05.247Z,99.90
2017-03-23T06:40:03.850Z,99.90
2017-03-23T06:41:02.789Z,99.90
2017-03-23T06:42:01.812Z,99.90
2017-03-23T06:43:00.832Z,99.90
2017-03-23T06:43:59.872Z,99.90
2017-03-23T06:44:58.447Z,99.90
2017-03-23T06:45:57.432Z,99.90
2017-03-23T06:46:56.007Z,99.90
2017-03-23T06:47:54.999Z,99.90
2017-03-23T06:48:53.963Z,99.90
2017-03-23T06:49:52.972Z,99.90
2017-03-23T06:50:51.967Z,99.90
2017-03-23T06:51:50.955Z,99.90
2017-03-23T06:52:50.020Z,99.90
2017-03-23T06:53:49.199Z,99.90
2017-03-23T06:54:47.744Z,99.90
2017-03-23T06:55:46.692Z,99.90
2017-03-23T06:56:45.656Z,99.90
2017-03-23T06:57:44.639Z,99.90
2017-03-23T06:58:43.195Z,99.90
2017-03-23T06:59:42.163Z,99.90
2017-03-23T07:00:41.123Z,99.90
2017-03-23T07:01:40.131Z,99.70
2017-03-23T07:02:39.492Z,98.40
2017-03-23T07:03:38.456Z,98.10
2017-03-23T07:04:37.109Z,98.10
2017-03-23T07:05:36.109Z,98.00
2017-03-23T07:06:35.052Z,97.80
2017-03-23T07:07:34.032Z,98.40
2017-03-23T07:08:33.024Z,98.10
2017-03-23T07:09:32.005Z,97.30
2017-03-23T07:10:31.052Z,97.50
2017-03-23T07:11:30.044Z,97.50
2017-03-23T07:12:29.008Z,97.20
2017-03-23T07:13:28.032Z,97.30
2017-03-23T07:14:27.019Z,97.10
2017-03-23T07:15:26.409Z,97.00
2017-03-23T07:16:24.991Z,97.00
2017-03-23T07:17:23.607Z,97.60
2017-03-23T07:18:22.579Z,96.40
2017-03-23T07:19:21.554Z,95.40
2017-03-23T07:20:20.627Z,95.40
2017-03-23T07:21:19.208Z,95.40
2017-03-23T07:22:18.183Z,96.20
2017-03-23T07:23:17.167Z,96.70
2017-03-23T07:24:16.118Z,97.80
2017-03-23T07:25:15.120Z,97.30
2017-03-23T07:26:14.068Z,97.10
2017-03-23T07:27:13.060Z,97.10
2017-03-23T07:28:12.032Z,96.90
2017-03-23T07:29:10.983Z,96.40
2017-03-23T07:30:09.775Z,96.40
2017-03-23T07:31:08.840Z,95.80
2017-03-23T07:32:07.875Z,96.80
2017-03-23T07:33:06.852Z,97.40
2017-03-23T07:34:05.830Z,97.30
2017-03-23T07:35:06.396Z,97.10
2017-03-23T07:36:05.776Z,97.30
2017-03-23T07:37:05.166Z,96.90
2017-03-23T07:38:04.103Z,96.40
2017-03-23T07:39:05.260Z,96.40
2017-03-23T07:40:04.247Z,97.10
2017-03-23T07:41:07.444Z,96.70
2017-03-23T07:42:07.707Z,96.40
2017-03-23T07:43:07.051Z,96.00
2017-03-23T07:44:06.027Z,95.40
2017-03-23T07:45:05.383Z,96.20
2017-03-23T07:46:04.390Z,96.00
2017-03-23T07:47:04.324Z,95.40
2017-03-23T07:48:02.925Z,95.40
2017-03-23T07:49:02.080Z,95.60
2017-03-23T07:50:01.058Z,95.00
2017-03-23T07:50:59.976Z,94.10
2017-03-23T07:51:58.925Z,94.20
2017-03-23T07:52:57.496Z,94.20
2017-03-23T07:53:56.595Z,91.80
2017-03-23T07:54:55.528Z,90.60
2017-03-23T07:55:54.436Z,90.70
2017-03-23T07:56:53.074Z,90.70
2017-03-23T07:57:52.058Z,91.20
2017-03-23T07:58:51.031Z,90.40
2017-03-23T07:59:50.027Z,90.90
2017-03-23T08:00:49.099Z,90.80
2017-03-23T08:01:48.073Z,90.60
2017-03-23T08:02:47.391Z,91.40
2017-03-23T08:03:46.675Z,91.40
2017-03-23T08:04:46.395Z,91.40
2017-03-23T08:05:45.413Z,91.20
2017-03-23T08:06:43.992Z,91.20
2017-03-23T08:07:42.581Z,91.30
2017-03-23T08:08:41.571Z,91.80
2017-03-23T08:09:40.557Z,90.40
2017-03-23T08:10:39.635Z,90.60
2017-03-23T08:11:38.635Z,89.60
2017-03-23T08:12:37.671Z,88.20
2017-03-23T08:13:36.675Z,88.30
2017-03-23T08:14:35.749Z,86.80
2017-03-23T08:15:34.736Z,86.60
2017-03-23T08:16:33.704Z,86.60
2017-03-23T08:17:32.707Z,87.50
2017-03-23T08:18:31.691Z,86.50
2017-03-23T08:19:31.024Z,86.30
2017-03-23T08:20:30.011Z,86.70
2017-03-23T08:21:28.993Z,87.10
2017-03-23T08:22:27.987Z,85.90
2017-03-23T08:23:26.971Z,86.20
2017-03-23T08:24:25.967Z,86.80
2017-03-23T08:25:24.975Z,88.30
2017-03-23T08:26:23.923Z,88.10
2017-03-23T08:27:22.876Z,87.50
2017-03-23T08:28:21.835Z,86.30
2017-03-23T08:29:20.846Z,88.10
2017-03-23T08:30:19.838Z,88.40
2017-03-23T08:31:18.415Z,88.40
2017-03-23T08:32:17.350Z,89.70
2017-03-23T08:33:16.323Z,88.80
2017-03-23T08:34:15.319Z,88.90
2017-03-23T08:35:13.915Z,88.90
2017-03-23T08:36:12.900Z,87.10
2017-03-23T08:37:11.469Z,87.10
2017-03-23T08:38:10.470Z,87.20
2017-03-23T08:39:09.396Z,87.20
2017-03-23T08:40:08.368Z,87.90
2017-03-23T08:41:06.982Z,87.90
2017-03-23T08:42:06.095Z,89.40
2017-03-23T08:43:05.382Z,89.20
2017-03-23T08:44:04.386Z,89.20
2017-03-23T08:45:03.386Z,87.90
2017-03-23T08:46:02.381Z,88.80
2017-03-23T08:47:01.367Z,90.00
2017-03-23T08:48:00.127Z,90.10
2017-03-23T08:48:58.684Z,89.70
2017-03-23T08:49:57.297Z,88.80
2017-03-23T08:50:56.236Z,91.00
2017-03-23T08:51:55.292Z,89.50
2017-03-23T08:52:54.394Z,89.10
2017-03-23T08:53:53.315Z,88.10
2017-03-23T08:54:52.359Z,89.10
2017-03-23T08:55:50.918Z,89.10
2017-03-23T08:56:49.933Z,88.00
2017-03-23T08:57:48.927Z,87.80
2017-03-23T08:58:47.966Z,86.30
2017-03-23T08:59:46.952Z,85.80
2017-03-23T09:00:45.984Z,85.50
2017-03-23T09:01:45.008Z,85.60
2017-03-23T09:02:43.611Z,85.60
2017-03-23T09:03:42.213Z,86.10
2017-03-23T09:04:41.170Z,86.90
2017-03-23T09:05:40.192Z,87.30
2017-03-23T09:06:39.180Z,86.40
2017-03-23T09:07:38.150Z,84.60
2017-03-23T09:08:37.130Z,83.00
2017-03-23T09:09:35.719Z,82.90
2017-03-23T09:10:34.763Z,82.30
2017-03-23T09:11:33.678Z,82.00
2017-03-23T09:12:33.088Z,82.00
2017-03-23T09:13:32.055Z,80.40
2017-03-23T09:14:31.028Z,79.30
2017-03-23T09:15:30.067Z,80.10
2017-03-23T09:16:29.064Z,81.10
2017-03-23T09:17:27.668Z,81.10
2017-03-23T09:18:26.639Z,82.00
2017-03-23T09:19:26.381Z,83.40
2017-03-23T09:20:25.380Z,82.30
2017-03-23T09:21:24.354Z,81.00
2017-03-23T09:22:23.342Z,81.40
2017-03-23T09:23:22.290Z,80.90
2017-03-23T09:24:21.256Z,81.90
2017-03-23T09:25:20.284Z,82.10
2017-03-23T09:26:19.324Z,81.90
2017-03-23T09:27:18.312Z,82.10
2017-03-23T09:28:16.928Z,82.10
2017-03-23T09:29:15.424Z,82.80
2017-03-23T09:30:14.071Z,82.40
2017-03-23T09:31:13.062Z,80.60
2017-03-23T09:32:12.068Z,79.90
2017-03-23T09:33:11.023Z,81.40
2017-03-23T09:34:10.016Z,80.70
2017-03-23T09:35:09.034Z,81.40
2017-03-23T09:36:07.565Z,81.40
2017-03-23T09:37:06.988Z,82.30
2017-03-23T09:38:06.012Z,81.60
2017-03-23T09:39:04.835Z,81.60
2017-03-23T09:40:06.091Z,80.10
2017-03-23T09:41:05.236Z,80.90
2017-03-23T09:42:03.916Z,80.90
2017-03-23T09:43:02.879Z,82.10
2017-03-23T09:44:01.395Z,82.10
2017-03-23T09:45:00.372Z,81.70
2017-03-23T09:45:59.334Z,81.70
2017-03-23T09:46:58.305Z,82.90
2017-03-23T09:47:57.312Z,82.90
2017-03-23T09:48:56.279Z,82.20
2017-03-23T09:49:55.787Z,84.20
2017-03-23T09:50:54.770Z,84.30
2017-03-23T09:51:53.767Z,83.20
2017-03-23T09:52:52.731Z,82.70
2017-03-23T09:53:51.743Z,81.30
2017-03-23T09:54:51.091Z,81.10
2017-03-23T09:55:50.091Z,81.30
2017-03-23T09:56:49.083Z,81.00
2017-03-23T09:57:47.715Z,81.10
2017-03-23T09:58:46.707Z,82.40
2017-03-23T09:59:46.460Z,81.10
2017-03-23T10:00:45.436Z,82.60
2017-03-23T10:01:44.079Z,82.60
2017-03-23T10:02:43.911Z,80.40
2017-03-23T10:03:42.920Z,81.20
2017-03-23T10:04:41.939Z,80.30
2017-03-23T10:05:40.539Z,80.30
2017-03-23T10:06:39.608Z,82.00
2017-03-23T10:07:38.638Z,79.80
2017-03-23T10:08:37.288Z,79.70
2017-03-23T10:09:36.315Z,80.40
2017-03-23T10:10:35.303Z,80.80
2017-03-23T10:11:34.295Z,79.50
2017-03-23T10:12:33.275Z,79.40
2017-03-23T10:13:32.369Z,80.20
2017-03-23T10:14:31.380Z,79.30
2017-03-23T10:15:30.387Z,79.40
2017-03-23T10:16:29.371Z,79.60
2017-03-23T10:17:28.340Z,79.10
2017-03-23T10:18:27.335Z,77.30
2017-03-23T10:19:26.327Z,78.20
2017-03-23T10:20:25.328Z,78.50
2017-03-23T10:21:23.916Z,78.50
2017-03-23T10:22:22.926Z,81.90
2017-03-23T10:23:21.920Z,81.20
2017-03-23T10:24:20.888Z,79.50
2017-03-23T10:25:19.957Z,78.10
2017-03-23T10:26:18.520Z,78.10
2017-03-23T10:27:17.502Z,77.70
2017-03-23T10:28:16.466Z,77.40
2017-03-23T10:29:15.294Z,77.40
2017-03-23T10:30:14.242Z,76.80
2017-03-23T10:31:13.236Z,76.30
2017-03-23T10:32:11.892Z,76.30
2017-03-23T10:33:10.516Z,77.00
2017-03-23T10:34:09.770Z,75.30
2017-03-23T10:35:08.787Z,74.40
2017-03-23T10:36:07.774Z,76.90
2017-03-23T10:37:06.788Z,76.40
2017-03-23T10:38:05.428Z,76.40
2017-03-23T10:39:04.887Z,76.70
2017-03-23T10:40:04.297Z,76.50
2017-03-23T10:41:03.326Z,76.50
2017-03-23T10:42:02.348Z,76.80
2017-03-23T10:43:01.379Z,76.50
2017-03-23T10:44:00.359Z,76.50
2017-03-23T10:44:59.395Z,76.50
2017-03-23T10:45:58.015Z,76.50
2017-03-23T10:46:57.000Z,75.10
2017-03-23T10:47:55.898Z,75.30
2017-03-23T10:48:54.932Z,76.30
2017-03-23T10:49:53.566Z,76.30
2017-03-23T10:50:52.603Z,73.80
2017-03-23T10:51:51.192Z,73.80
2017-03-23T10:52:50.183Z,74.20
2017-03-23T10:53:49.136Z,74.20
2017-03-23T10:54:48.065Z,72.90
2017-03-23T10:55:47.035Z,74.00
2017-03-23T10:56:46.051Z,74.20
2017-03-23T10:57:45.011Z,74.10
2017-03-23T10:58:43.940Z,75.90
2017-03-23T10:59:43.011Z,74.70
2017-03-23T11:00:42.065Z,73.20
2017-03-23T11:01:41.083Z,74.40
2017-03-23T11:02:39.679Z,74.40
2017-03-23T11:03:38.239Z,73.40
2017-03-23T11:04:37.250Z,74.60
2017-03-23T11:05:36.406Z,72.30
2017-03-23T11:06:35.357Z,74.50
2017-03-23T11:07:33.978Z,74.50
2017-03-23T11:08:33.023Z,74.30
2017-03-23T11:09:31.999Z,75.80
2017-03-23T11:10:30.968Z,73.10
2017-03-23T11:11:29.923Z,72.70
2017-03-23T11:12:28.979Z,73.10
2017-03-23T11:13:27.979Z,74.10
2017-03-23T11:14:26.626Z,74.10
2017-03-23T11:15:25.847Z,73.70
2017-03-23T11:16:24.838Z,73.60
2017-03-23T11:17:23.455Z,73.60
2017-03-23T11:18:22.431Z,74.40
2017-03-23T11:19:21.418Z,75.30
2017-03-23T11:20:20.338Z,77.20
2017-03-23T11:21:19.399Z,77.10
2017-03-23T11:22:18.378Z,73.60
2017-03-23T11:23:17.363Z,73.70
2017-03-23T11:24:15.967Z,73.70
2017-03-23T11:25:14.930Z,74.00
2017-03-23T11:26:13.943Z,74.80
2017-03-23T11:27:12.912Z,73.80
2017-03-23T11:28:11.514Z,73.80
2017-03-23T11:29:10.507Z,72.30
2017-03-23T11:30:09.079Z,72.30
2017-03-23T11:31:08.040Z,73.60
2017-03-23T11:32:07.032Z,74.70
2017-03-23T11:33:06.044Z,74.00
2017-03-23T11:34:04.991Z,73.20
2017-03-23T11:35:03.600Z,73.20
2017-03-23T11:36:02.603Z,73.10
2017-03-23T11:37:01.571Z,73.20
2017-03-23T11:38:00.529Z,72.90
2017-03-23T11:38:59.486Z,72.50
2017-03-23T11:39:58.488Z,72.90
2017-03-23T11:40:57.472Z,72.90
2017-03-23T11:41:56.463Z,73.70
2017-03-23T11:42:55.464Z,73.00
2017-03-23T11:43:54.467Z,72.80
2017-03-23T11:44:53.422Z,73.20
2017-03-23T11:45:52.475Z,72.30
2017-03-23T11:46:51.503Z,73.70
2017-03-23T11:47:50.506Z,73.50
2017-03-23T11:48:49.460Z,73.70
2017-03-23T11:49:48.483Z,73.30
2017-03-23T11:50:47.458Z,74.10
2017-03-23T11:51:46.423Z,72.40
2017-03-23T11:52:45.407Z,72.50
2017-03-23T11:53:43.998Z,72.50
2017-03-23T11:54:42.984Z,73.10
2017-03-23T11:55:41.988Z,72.60
2017-03-23T11:56:40.993Z,73.60
2017-03-23T11:57:39.576Z,73.60
2017-03-23T11:58:38.624Z,74.80
2017-03-23T11:59:37.601Z,76.30
2017-03-23T12:00:36.625Z,77.30
2017-03-23T12:01:35.223Z,77.30
2017-03-23T12:02:34.219Z,72.70
2017-03-23T12:03:33.207Z,73.60
2017-03-23T12:04:32.187Z,73.70
2017-03-23T12:05:31.188Z,73.60
2017-03-23T12:06:30.151Z,74.20
2017-03-23T12:07:29.155Z,72.70
2017-03-23T12:08:28.128Z,70.60
2017-03-23T12:09:27.094Z,73.70
2017-03-23T12:10:25.691Z,73.70
2017-03-23T12:11:24.636Z,73.40
2017-03-23T12:12:23.644Z,75.20
2017-03-23T12:13:22.639Z,73.40
2017-03-23T12:14:21.615Z,73.10
2017-03-23T12:15:20.538Z,74.60
2017-03-23T12:16:19.580Z,76.90
2017-03-23T12:17:18.586Z,74.10
2017-03-23T12:18:17.529Z,74.70
2017-03-23T12:19:16.099Z,74.70
2017-03-23T12:20:15.071Z,76.20
2017-03-23T12:21:14.011Z,75.40
2017-03-23T12:22:13.022Z,74.10
2017-03-23T12:23:12.044Z,74.50
2017-03-23T12:24:11.107Z,75.50
2017-03-23T12:25:09.711Z,75.50
2017-03-23T12:26:08.735Z,75.10
2017-03-23T12:27:07.797Z,75.20
2017-03-23T12:28:06.804Z,75.90
2017-03-23T12:29:05.771Z,75.00
2017-03-23T12:30:04.754Z,74.80
2017-03-23T12:31:03.764Z,76.50
2017-03-23T12:32:02.769Z,75.60
2017-03-23T12:33:01.759Z,76.10
2017-03-23T12:34:00.383Z,76.20
2017-03-23T12:34:59.380Z,74.50
2017-03-23T12:35:58.371Z,74.60
2017-03-23T12:36:57.350Z,73.30
2017-03-23T12:37:56.297Z,74.20
2017-03-23T12:38:54.937Z,74.20
2017-03-23T12:39:53.939Z,75.40
2017-03-23T12:40:53.686Z,74.50